Time;durP1;ratioP1;P1;durP2;ratioP2;P2;SDS_P1;SDS_P2;PMS_P1;PMS_P2;Temp;Humidity;BMP_temperature;BMP_pressure;BME280_temperature;BME280_humidity;BME280_pressure;Samples;Min_cycle;Max_cycle;Signal;HPM_P1;HPM_P2
2024/01/11 00:01:24;;;;;;;29.83;18.30;;;;;;;-5.09;100.00;150079.25;5008491;28;20520;-86
2024/01/11 00:03:50;;;;;;;29.70;18.40;;;;;;;-5.10;100.00;150076.69;4993694;28;20427;-86
2024/01/11 00:06:17;;;;;;;26.97;17.53;;;;;;;-5.07;100.00;150084.34;5026564;28;20446;-85
2024/01/11 00:08:45;;;;;;;27.10;17.70;;;;;;;-5.13;100.00;150069.00;5026165;28;20413;-86
2024/01/11 00:11:12;;;;;;;26.30;17.97;;;;;;;-5.16;100.00;150061.34;5012429;28;20505;-87
2024/01/11 00:13:38;;;;;;;35.10;20.50;;;;;;;-5.14;100.00;150066.50;4991896;28;20988;-87
2024/01/11 00:16:05;;;;;;;28.77;18.67;;;;;;;-5.16;100.00;150061.34;5030319;28;20514;-87
2024/01/11 00:18:32;;;;;;;32.63;20.13;;;;;;;-5.13;100.00;150069.00;4989318;28;20461;-87
2024/01/11 00:20:58;;;;;;;36.67;20.40;;;;;;;-5.06;100.00;150086.94;5009791;28;20541;-87
2024/01/11 00:23:25;;;;;;;33.47;18.40;;;;;;;-4.96;100.00;150112.47;5026024;28;20419;-87
2024/01/11 00:25:53;;;;;;;29.60;18.77;;;;;;;-4.81;100.00;150148.19;4988801;28;20912;-87
2024/01/11 00:28:20;;;;;;;29.00;17.70;;;;;;;-4.74;100.00;150166.13;4997579;28;20514;-87
2024/01/11 00:30:47;;;;;;;32.93;19.67;;;;;;;-4.73;100.00;150168.63;5008277;28;20523;-88
2024/01/11 00:33:13;;;;;;;28.30;18.30;;;;;;;-4.65;100.00;150189.09;4994761;28;20501;-87
2024/01/11 00:35:40;;;;;;;30.07;19.93;;;;;;;-4.66;100.00;150186.56;4994216;28;20460;-87
2024/01/11 00:38:06;;;;;;;32.10;21.90;;;;;;;-4.78;100.00;150155.88;4995687;28;20906;-87
2024/01/11 00:40:33;;;;;;;33.70;18.90;;;;;;;-4.84;100.00;150140.56;5008519;28;20890;-86
2024/01/11 00:43:01;;;;;;;29.27;18.10;;;;;;;-4.82;100.00;150145.66;5003161;28;21021;-86
2024/01/11 00:45:28;;;;;;;29.37;19.70;;;;;;;-4.87;100.00;150134.13;4997748;28;20819;-87
2024/01/11 00:47:54;;;;;;;31.80;21.17;;;;;;;-4.83;100.00;150143.09;5002442;28;20462;-87
2024/01/11 00:50:21;;;;;;;28.17;20.70;;;;;;;-4.88;100.00;150130.31;5011669;28;20820;-87
2024/01/11 00:52:48;;;;;;;31.40;18.37;;;;;;;-5.02;100.00;150097.13;4995792;28;20444;-87
2024/01/11 00:55:16;;;;;;;26.17;18.63;;;;;;;-5.15;100.00;150063.91;5024081;28;20539;-87
2024/01/11 00:57:42;;;;;;;30.73;19.80;;;;;;;-5.20;100.00;150049.88;4995789;28;20444;-87
2024/01/11 01:00:13;;;;;;;33.73;19.20;;;;;;;-5.24;100.00;150040.91;4993165;28;20992;-86
2024/01/11 01:02:40;;;;;;;31.07;19.90;;;;;;;-5.28;100.00;150030.72;4999587;28;21051;-86
2024/01/11 01:05:08;;;;;;;27.73;17.40;;;;;;;-5.30;100.00;150024.34;4998264;28;20423;-87
2024/01/11 01:07:34;;;;;;;28.00;17.90;;;;;;;-5.26;100.00;150035.81;5017816;28;21177;-87
2024/01/11 01:10:01;;;;;;;29.33;19.43;;;;;;;-5.19;100.00;150053.66;4991586;28;20510;-87
2024/01/11 01:12:28;;;;;;;28.37;17.80;;;;;;;-5.06;100.00;150085.63;4982230;28;20888;-86
2024/01/11 01:14:55;;;;;;;39.40;21.83;;;;;;;-4.98;100.00;150107.31;5005860;28;20455;-87
2024/01/11 01:17:23;;;;;;;30.13;18.80;;;;;;;-4.87;100.00;150132.91;4989468;28;20432;-87
2024/01/11 01:19:50;;;;;;;32.40;20.30;;;;;;;-4.84;100.00;150140.56;5006964;28;20486;-87
2024/01/11 01:22:16;;;;;;;32.77;19.40;;;;;;;-4.82;100.00;150146.97;5025946;28;20807;-86
2024/01/11 01:24:43;;;;;;;27.10;17.83;;;;;;;-4.96;100.00;150112.47;4995285;28;20796;-87
2024/01/11 01:27:09;;;;;;;32.47;20.93;;;;;;;-5.14;100.00;150066.50;4994169;28;21081;-87
2024/01/11 01:29:36;;;;;;;29.83;19.13;;;;;;;-5.22;100.00;150046.06;5008156;28;20455;-87
2024/01/11 01:32:03;;;;;;;28.63;19.03;;;;;;;-5.31;100.00;150023.03;4991966;28;20488;-86
2024/01/11 01:34:31;;;;;;;29.93;18.47;;;;;;;-5.41;100.00;149997.53;5007545;28;20414;-87
2024/01/11 01:36:58;;;;;;;30.97;17.93;;;;;;;-5.39;100.00;150002.63;4994835;28;20539;-87
2024/01/11 01:39:24;;;;;;;29.53;19.73;;;;;;;-5.37;100.00;150007.72;4999743;28;20460;-87
2024/01/11 01:41:51;;;;;;;31.47;19.80;;;;;;;-5.30;100.00;150025.63;5003552;28;20434;-87
2024/01/11 01:44:18;;;;;;;28.27;17.63;;;;;;;-5.19;100.00;150053.66;5010765;28;20570;-87
2024/01/11 01:46:44;;;;;;;30.50;18.77;;;;;;;-5.02;100.00;150097.13;5004139;28;20529;-87
2024/01/11 01:49:11;;;;;;;35.00;21.07;;;;;;;-4.92;100.00;150122.66;5028638;28;20797;-87
2024/01/11 01:51:39;;;;;;;30.90;19.37;;;;;;;-4.88;100.00;150131.63;5018542;28;20429;-87
2024/01/11 01:54:06;;;;;;;28.67;19.43;;;;;;;-4.90;100.00;150125.22;5013950;28;20440;-87
2024/01/11 01:56:33;;;;;;;29.73;20.57;;;;;;;-4.85;100.00;150139.28;5015769;28;20428;-87
2024/01/11 01:59:01;;;;;;;28.73;20.07;;;;;;;-4.85;100.00;150139.28;4999489;28;20410;-87
2024/01/11 02:01:28;;;;;;;33.07;20.63;;;;;;;-4.84;100.00;150140.56;4999498;28;21034;-87
2024/01/11 02:03:55;;;;;;;31.63;21.63;;;;;;;-4.88;100.00;150130.31;5023284;28;20488;-87
2024/01/11 02:06:23;;;;;;;31.57;19.53;;;;;;;-4.96;100.00;150111.19;5015252;28;20486;-87
2024/01/11 02:08:53;;;;;;;35.83;22.17;;;;;;;-4.91;100.00;150123.94;5026157;28;20476;-87
2024/01/11 02:11:24;;;;;;;32.73;20.37;;;;;;;-4.89;100.00;150129.03;5015309;28;20429;-87
2024/01/11 02:13:51;;;;;;;30.93;19.87;;;;;;;-4.94;100.00;150116.28;4992297;28;21045;-87
2024/01/11 02:16:17;;;;;;;29.00;19.43;;;;;;;-5.09;100.00;150079.25;4998759;28;21032;-87
2024/01/11 02:18:44;;;;;;;29.33;19.70;;;;;;;-5.08;100.00;150081.78;5010751;28;20483;-87
2024/01/11 02:21:13;;;;;;;29.23;19.77;;;;;;;-5.15;100.00;150062.63;5006487;28;20481;-87
2024/01/11 02:23:45;;;;;;;31.97;21.10;;;;;;;-5.12;100.00;150071.59;5029900;28;20948;-87
2024/01/11 02:26:14;;;;;;;34.90;20.60;;;;;;;-5.19;100.00;150053.66;5012233;28;20431;-87
2024/01/11 02:28:44;;;;;;;34.60;21.30;;;;;;;-5.23;100.00;150043.47;5030655;28;21115;-87
2024/01/11 02:31:11;;;;;;;30.70;20.67;;;;;;;-5.33;100.00;150016.66;5030994;28;20466;-87
2024/01/11 02:33:38;;;;;;;34.07;19.10;;;;;;;-5.38;100.00;150003.91;5013426;28;20458;-86
2024/01/11 02:36:05;;;;;;;33.17;21.10;;;;;;;-5.43;100.00;149992.44;5011783;28;20437;-86
2024/01/11 02:38:32;;;;;;;37.07;20.90;;;;;;;-5.33;100.00;150016.66;4996431;28;20432;-87
2024/01/11 02:41:00;;;;;;;31.83;20.73;;;;;;;-5.23;100.00;150043.47;4994043;28;20456;-88
2024/01/11 02:43:28;;;;;;;30.90;18.60;;;;;;;-5.11;100.00;150074.09;4993262;28;20462;-87
2024/01/11 02:45:55;;;;;;;30.33;20.77;;;;;;;-4.97;100.00;150109.88;5004732;28;20565;-87
2024/01/11 02:48:22;;;;;;;33.90;21.20;;;;;;;-4.95;100.00;150113.75;5027125;28;20541;-88
2024/01/11 02:50:49;;;;;;;31.00;20.30;;;;;;;-4.96;100.00;150112.47;5028317;28;20446;-87
2024/01/11 02:53:16;;;;;;;31.83;20.77;;;;;;;-4.98;100.00;150107.31;5028500;28;20451;-86
2024/01/11 02:55:43;;;;;;;31.00;20.70;;;;;;;-5.01;100.00;150099.69;4997335;28;20442;-87
2024/01/11 02:58:16;;;;;;;35.83;20.97;;;;;;;-5.08;100.00;150081.78;4996411;28;20426;-87
2024/01/11 03:00:44;;;;;;;32.33;20.50;;;;;;;-5.06;100.00;150085.63;5011186;28;20534;-87
2024/01/11 03:03:11;;;;;;;32.07;20.67;;;;;;;-5.09;100.00;150079.25;4996523;28;20448;-87
2024/01/11 03:05:37;;;;;;;38.53;21.40;;;;;;;-5.13;100.00;150069.00;4996573;28;20419;-87
2024/01/11 03:08:05;;;;;;;33.10;20.67;;;;;;;-5.16;100.00;150061.34;5028263;28;20447;-87
2024/01/11 03:10:31;;;;;;;36.93;22.13;;;;;;;-5.21;100.00;150048.56;5000576;28;20459;-87
2024/01/11 03:12:58;;;;;;;36.27;21.23;;;;;;;-5.17;100.00;150058.81;5010893;28;20437;-87
2024/01/11 03:15:25;;;;;;;39.70;20.37;;;;;;;-5.05;100.00;150089.44;5006064;28;21235;-86
2024/01/11 03:17:53;;;;;;;37.47;20.50;;;;;;;-4.94;100.00;150117.56;5019576;28;20467;-86
2024/01/11 03:20:24;;;;;;;32.30;18.97;;;;;;;-4.83;100.00;150143.09;5011048;28;20481;-87
2024/01/11 03:22:51;;;;;;;27.37;17.87;;;;;;;-4.80;100.00;150150.78;5007610;28;20487;-87
2024/01/11 03:25:17;;;;;;;33.23;20.07;;;;;;;-4.80;100.00;150150.78;5010545;28;20443;-86
2024/01/11 03:27:44;;;;;;;34.67;21.10;;;;;;;-4.84;100.00;150140.56;5011102;28;20559;-87
2024/01/11 03:30:11;;;;;;;26.83;18.40;;;;;;;-4.93;100.00;150118.84;4995486;28;20769;-87
2024/01/11 03:32:38;;;;;;;31.20;21.07;;;;;;;-4.95;100.00;150114.97;4994461;28;20533;-87
2024/01/11 03:35:07;;;;;;;30.83;19.23;;;;;;;-4.88;100.00;150130.31;4989215;28;20431;-86
2024/01/11 03:37:34;;;;;;;34.37;17.90;;;;;;;-4.82;100.00;150146.97;4999974;28;20415;-87
2024/01/11 03:40:01;;;;;;;29.00;17.90;;;;;;;-4.80;100.00;150152.06;5025669;28;20434;-86
2024/01/11 03:42:28;;;;;;;30.90;19.23;;;;;;;-4.80;100.00;150152.06;5025392;28;20463;-86
2024/01/11 03:44:55;;;;;;;29.80;16.77;;;;;;;-4.82;100.00;150145.66;5027596;28;20460;-87
2024/01/11 03:47:22;;;;;;;31.10;18.97;;;;;;;-4.93;100.00;150120.13;5025960;28;20474;-87
2024/01/11 03:49:48;;;;;;;29.07;19.33;;;;;;;-5.18;100.00;150056.25;5008902;28;20479;-86
2024/01/11 03:52:16;;;;;;;36.20;19.97;;;;;;;-5.26;100.00;150035.81;5010695;28;20816;-86
2024/01/11 03:54:43;;;;;;;32.73;20.50;;;;;;;-5.40;100.00;149998.81;5007329;28;20979;-86
2024/01/11 03:57:10;;;;;;;32.00;19.03;;;;;;;-5.40;100.00;150000.03;4994940;28;20443;-87
2024/01/11 04:03:01;;;;;;;26.90;19.17;;;;;;;-5.41;100.00;149996.22;5005658;28;20420;-87
2024/01/11 04:05:28;;;;;;;33.93;21.50;;;;;;;-5.38;100.00;150005.19;5013920;28;20532;-86
2024/01/11 04:07:56;;;;;;;31.43;18.83;;;;;;;-5.43;100.00;149991.13;5012908;28;20472;-87
2024/01/11 04:10:22;;;;;;;32.93;20.47;;;;;;;-5.54;100.00;149964.31;4996906;28;20428;-87
2024/01/11 04:12:49;;;;;;;37.13;20.93;;;;;;;-5.63;100.00;149942.63;4993204;28;20449;-87
2024/01/11 04:15:16;;;;;;;33.07;20.07;;;;;;;-5.64;100.00;149938.81;5029673;28;20996;-87
2024/01/11 04:17:42;;;;;;;30.70;18.80;;;;;;;-5.70;100.00;149923.47;5010360;28;20427;-87
2024/01/11 04:20:10;;;;;;;31.67;20.27;;;;;;;-5.67;100.00;149932.44;5011724;28;21237;-88
2024/01/11 04:22:36;;;;;;;32.07;19.37;;;;;;;-5.63;100.00;149941.31;4992484;28;20473;-87
2024/01/11 04:25:05;;;;;;;33.50;19.37;;;;;;;-5.54;100.00;149964.31;5003866;28;20439;-87
2024/01/11 04:27:32;;;;;;;37.20;21.00;;;;;;;-5.44;100.00;149989.84;5008299;28;20446;-87
2024/01/11 04:29:57;;;;;;;34.77;20.20;;;;;;;-5.43;100.00;149991.13;4997436;28;20789;-87
2024/01/11 04:32:24;;;;;;;36.80;18.60;;;;;;;-5.49;100.00;149975.81;5004817;28;20442;-87
2024/01/11 04:34:51;;;;;;;35.67;21.10;;;;;;;-5.61;100.00;149946.41;5009939;28;20199;-87
2024/01/11 04:37:17;;;;;;;29.60;18.93;;;;;;;-5.67;100.00;149932.44;5009574;28;20476;-87
2024/01/11 04:39:44;;;;;;;31.00;20.70;;;;;;;-5.66;100.00;149933.66;4994423;28;20543;-87
2024/01/11 04:42:12;;;;;;;28.30;19.07;;;;;;;-5.57;100.00;149956.66;5010920;28;20419;-86
2024/01/11 04:44:39;;;;;;;34.20;21.33;;;;;;;-5.42;100.00;149993.66;5011674;28;20846;-85
2024/01/11 04:47:06;;;;;;;36.53;20.00;;;;;;;-5.31;100.00;150023.03;4994880;28;20567;-87
2024/01/11 04:49:33;;;;;;;33.87;21.17;;;;;;;-5.27;100.00;150032.00;5007904;28;20553;-86
2024/01/11 04:52:00;;;;;;;34.13;21.10;;;;;;;-5.26;100.00;150035.81;5008813;28;20420;-87
2024/01/11 04:54:26;;;;;;;35.20;20.40;;;;;;;-5.30;100.00;150025.63;4993956;28;20447;-87
2024/01/11 04:56:53;;;;;;;31.77;20.73;;;;;;;-5.27;100.00;150032.00;5024770;28;20448;-85
2024/01/11 04:59:21;;;;;;;35.23;21.60;;;;;;;-5.29;100.00;150028.13;4990236;28;20932;-87
2024/01/11 05:01:47;;;;;;;31.13;21.07;;;;;;;-5.36;100.00;150009.00;5013787;28;20430;-87
2024/01/11 05:04:14;;;;;;;36.67;22.67;;;;;;;-5.35;100.00;150012.84;5009713;28;20438;-87
2024/01/11 05:06:41;;;;;;;34.20;20.70;;;;;;;-5.31;100.00;150023.03;5014017;28;20444;-87
2024/01/11 05:09:08;;;;;;;36.27;20.43;;;;;;;-5.28;100.00;150030.72;5009470;28;20445;-87
2024/01/11 05:11:34;;;;;;;31.57;21.30;;;;;;;-5.21;100.00;150048.56;5009971;28;20497;-94
2024/01/11 05:14:01;;;;;;;38.37;23.10;;;;;;;-5.16;100.00;150061.34;5006419;28;20458;-86
2024/01/11 05:16:30;;;;;;;36.73;20.70;;;;;;;-5.16;100.00;150061.34;4992102;28;20480;-86
2024/01/11 05:19:00;;;;;;;30.47;20.00;;;;;;;-5.18;100.00;150054.97;5010728;28;20874;-86
2024/01/11 05:21:27;;;;;;;35.23;22.03;;;;;;;-5.22;100.00;150046.06;5009659;28;20972;-86
2024/01/11 05:23:54;;;;;;;33.80;21.10;;;;;;;-5.19;100.00;150052.44;5025853;28;20890;-86
2024/01/11 05:26:21;;;;;;;29.73;19.60;;;;;;;-5.33;100.00;150016.66;4993535;28;20868;-86
2024/01/11 05:28:48;;;;;;;30.90;19.47;;;;;;;-5.44;100.00;149988.56;4989697;28;20450;-86
2024/01/11 05:31:16;;;;;;;34.97;21.80;;;;;;;-5.46;100.00;149984.75;4990416;28;21020;-87
2024/01/11 05:33:44;;;;;;;30.03;21.20;;;;;;;-5.52;100.00;149969.41;5006198;28;21064;-87
2024/01/11 05:36:11;;;;;;;32.70;18.90;;;;;;;-5.57;100.00;149956.66;5007606;28;20454;-86
2024/01/11 05:38:39;;;;;;;35.20;18.60;;;;;;;-5.62;100.00;149943.91;4993263;28;20946;-85
2024/01/11 05:41:06;;;;;;;34.87;22.53;;;;;;;-5.71;100.00;149922.19;4992422;28;20441;-84
2024/01/11 05:43:33;;;;;;;41.30;21.60;;;;;;;-5.75;100.00;149910.72;5009059;28;20546;-85
2024/01/11 05:45:59;;;;;;;37.30;20.77;;;;;;;-5.67;100.00;149931.13;5021905;28;20448;-86
2024/01/11 05:48:26;;;;;;;28.57;19.47;;;;;;;-5.64;100.00;149938.81;4992556;28;20442;-85
2024/01/11 05:50:54;;;;;;;29.83;21.13;;;;;;;-5.57;100.00;149956.66;4992950;28;20989;-85
2024/01/11 05:53:21;;;;;;;32.20;20.73;;;;;;;-5.52;100.00;149969.41;5008977;28;20418;-85
2024/01/11 05:55:48;;;;;;;31.77;20.77;;;;;;;-5.51;100.00;149972.00;5007469;28;20471;-85
2024/01/11 05:58:14;;;;;;;35.70;21.10;;;;;;;-5.53;100.00;149966.84;5012295;28;20463;-85
2024/01/11 06:00:41;;;;;;;37.37;20.30;;;;;;;-5.53;100.00;149965.63;4988314;28;20456;-85
2024/01/11 06:03:08;;;;;;;31.40;20.63;;;;;;;-5.52;100.00;149969.41;5006259;28;20426;-86
2024/01/11 06:05:35;;;;;;;34.33;20.50;;;;;;;-5.58;100.00;149955.38;4987426;28;20969;-86
2024/01/11 06:08:03;;;;;;;38.30;24.40;;;;;;;-5.58;100.00;149954.09;5015649;28;20442;-86
2024/01/11 06:10:30;;;;;;;31.43;20.67;;;;;;;-5.64;100.00;149938.81;5017635;28;20452;-85
2024/01/11 06:12:58;;;;;;;33.97;22.23;;;;;;;-5.70;100.00;149924.75;5015169;28;20521;-86
2024/01/11 06:15:24;;;;;;;34.33;22.30;;;;;;;-5.61;100.00;149946.41;4997628;28;20588;-86
2024/01/11 06:17:51;;;;;;;29.37;19.77;;;;;;;-5.49;100.00;149977.09;5017257;28;20675;-85
2024/01/11 06:20:18;;;;;;;37.00;21.30;;;;;;;-5.45;100.00;149987.28;5002211;28;20471;-86
2024/01/11 06:22:44;;;;;;;35.10;20.93;;;;;;;-5.40;100.00;150000.03;4995480;28;20953;-86
2024/01/11 06:25:12;;;;;;;30.77;19.90;;;;;;;-5.37;100.00;150007.72;5021111;28;20455;-85
2024/01/11 06:27:39;;;;;;;30.37;20.73;;;;;;;-5.37;100.00;150006.44;5022675;28;20816;-85
2024/01/11 06:30:07;;;;;;;34.53;20.37;;;;;;;-5.39;100.00;150001.34;5007191;28;20461;-86
2024/01/11 06:32:34;;;;;;;38.03;22.60;;;;;;;-5.37;100.00;150007.72;5012723;28;20439;-85
2024/01/11 06:35:02;;;;;;;31.47;20.70;;;;;;;-5.39;100.00;150002.63;5007622;28;20901;-85
2024/01/11 06:37:28;;;;;;;31.90;20.67;;;;;;;-5.41;100.00;149997.53;5022541;28;20430;-87
2024/01/11 06:39:57;;;;;;;28.40;21.00;;;;;;;-5.38;100.00;150003.91;5022201;28;20854;-80
2024/01/11 06:42:25;;;;;;;35.00;19.97;;;;;;;-5.38;100.00;150003.91;5016983;28;20447;-80
2024/01/11 06:44:51;;;;;;;34.33;20.50;;;;;;;-5.36;100.00;150010.28;5001563;28;20453;-80
2024/01/11 06:47:18;;;;;;;34.43;21.47;;;;;;;-5.39;100.00;150002.63;5001665;28;20809;-80
2024/01/11 06:49:45;;;;;;;34.00;20.23;;;;;;;-5.37;100.00;150007.72;5018455;28;20476;-80
2024/01/11 06:52:11;;;;;;;30.17;20.00;;;;;;;-5.37;100.00;150006.44;5019876;28;20463;-80
2024/01/11 06:54:38;;;;;;;31.40;20.97;;;;;;;-5.36;100.00;150010.28;5021138;28;20448;-80
2024/01/11 06:57:04;;;;;;;33.53;19.37;;;;;;;-5.36;100.00;150009.00;5019429;28;20447;-80
2024/01/11 06:59:32;;;;;;;31.43;21.20;;;;;;;-5.44;100.00;149989.84;5010042;28;20454;-80
2024/01/11 07:01:59;;;;;;;33.37;20.13;;;;;;;-5.42;100.00;149993.66;5004142;28;20451;-80
2024/01/11 07:04:26;;;;;;;32.07;20.70;;;;;;;-5.39;100.00;150002.63;5023047;28;20453;-79
2024/01/11 07:06:55;;;;;;;30.20;19.47;;;;;;;-5.40;100.00;150000.03;5021855;28;20867;-80
2024/01/11 07:09:22;;;;;;;31.30;20.10;;;;;;;-5.39;100.00;150002.63;5017784;28;20485;-80
2024/01/11 07:11:50;;;;;;;31.80;20.17;;;;;;;-5.37;100.00;150007.72;4996987;28;20448;-80
2024/01/11 07:14:19;;;;;;;28.50;20.57;;;;;;;-5.39;100.00;150002.63;5003169;28;20470;-80
2024/01/11 07:16:47;;;;;;;30.47;20.50;;;;;;;-5.47;100.00;149982.19;5020194;28;20448;-80
2024/01/11 07:19:14;;;;;;;31.57;20.90;;;;;;;-5.48;100.00;149979.63;5017248;28;20988;-80
2024/01/11 07:21:40;;;;;;;31.17;20.00;;;;;;;-5.43;100.00;149992.44;5004024;28;21068;-80
2024/01/11 07:24:07;;;;;;;40.40;22.97;;;;;;;-5.42;100.00;149994.94;5011339;28;20492;-80
2024/01/11 07:26:34;;;;;;;36.60;21.97;;;;;;;-5.47;100.00;149982.19;5007734;28;20479;-79
2024/01/11 07:29:01;;;;;;;36.77;21.50;;;;;;;-5.48;100.00;149979.63;5007331;28;20477;-79
2024/01/11 07:31:27;;;;;;;35.67;19.37;;;;;;;-5.56;100.00;149959.22;5026614;28;20429;-79
2024/01/11 07:33:56;;;;;;;36.13;20.73;;;;;;;-5.59;100.00;149951.56;5009391;28;20525;-79
2024/01/11 07:36:24;;;;;;;36.40;21.40;;;;;;;-5.74;100.00;149913.22;5027716;28;20477;-78
2024/01/11 07:38:55;;;;;;;32.53;21.57;;;;;;;-5.84;100.00;149889.00;5002908;28;20451;-79
2024/01/11 07:41:22;;;;;;;40.33;21.27;;;;;;;-5.85;100.00;149886.47;4999249;28;20801;-80
2024/01/11 07:43:49;;;;;;;34.20;19.20;;;;;;;-5.64;100.00;149940.03;5003765;28;20422;-79
2024/01/11 07:46:18;;;;;;;40.40;23.17;;;;;;;-5.43;100.00;149992.44;5002474;28;20437;-80
2024/01/11 07:48:47;;;;;;;32.90;22.67;;;;;;;-5.33;100.00;150017.94;5001675;28;20494;-80
2024/01/11 07:51:15;;;;;;;37.03;23.83;;;;;;;-5.31;100.00;150023.03;5020559;28;20459;-79
2024/01/11 07:53:48;;;;;;;46.07;26.27;;;;;;;-5.39;100.00;150002.63;5001689;28;20437;-80
2024/01/11 07:56:15;;;;;;;36.37;23.57;;;;;;;-5.40;100.00;149998.81;5009842;28;20550;-79
2024/01/11 07:58:42;;;;;;;36.97;24.67;;;;;;;-5.36;100.00;150010.28;5018636;28;20452;-79
2024/01/11 08:01:10;;;;;;;33.10;22.37;;;;;;;-5.35;100.00;150012.84;5003901;28;20523;-79
2024/01/11 08:03:37;;;;;;;34.30;21.90;;;;;;;-5.35;100.00;150012.84;5019582;28;20950;-80
2024/01/11 08:06:07;;;;;;;34.70;22.10;;;;;;;-5.28;100.00;150030.72;5004784;28;20491;-79
2024/01/11 08:08:35;;;;;;;36.03;22.57;;;;;;;-5.25;100.00;150038.38;5020951;28;20463;-79
2024/01/11 08:11:04;;;;;;;38.33;23.30;;;;;;;-5.21;100.00;150048.56;5020748;28;20454;-79
2024/01/11 08:13:31;;;;;;;37.27;22.80;;;;;;;-5.15;100.00;150063.91;5016706;28;20513;-79
2024/01/11 08:15:58;;;;;;;35.63;22.80;;;;;;;-5.09;100.00;150079.25;5020212;28;20862;-79
2024/01/11 08:18:26;;;;;;;41.43;24.47;;;;;;;-5.09;100.00;150077.97;5017882;28;20454;-81
2024/01/11 08:20:53;;;;;;;37.80;24.97;;;;;;;-5.08;100.00;150081.78;5020922;28;20423;-80
2024/01/11 08:23:20;;;;;;;32.43;21.47;;;;;;;-5.08;100.00;150081.78;5017206;28;20427;-80
2024/01/11 08:25:48;;;;;;;31.40;22.27;;;;;;;-5.06;100.00;150086.94;5018148;28;20460;-80
2024/01/11 08:28:15;;;;;;;33.50;22.80;;;;;;;-5.04;100.00;150092.03;5017022;28;20455;-81
2024/01/11 08:30:44;;;;;;;36.70;23.83;;;;;;;-4.95;100.00;150114.97;5002130;28;21055;-83
2024/01/11 08:33:14;;;;;;;35.07;20.20;;;;;;;-4.90;100.00;150125.22;5002646;28;20431;-80
2024/01/11 08:35:41;;;;;;;39.93;22.47;;;;;;;-4.85;100.00;150139.28;5003668;28;20448;-78
2024/01/11 08:38:08;;;;;;;40.67;23.40;;;;;;;-4.79;100.00;150153.34;5019288;28;20456;-81
2024/01/11 08:40:35;;;;;;;37.10;23.10;;;;;;;-4.75;100.00;150163.53;5005118;28;20970;-80
2024/01/11 08:43:03;;;;;;;29.43;21.77;;;;;;;-4.70;100.00;150177.59;5014391;28;20521;-81
2024/01/11 08:45:31;;;;;;;28.80;20.43;;;;;;;-4.62;100.00;150196.75;5014501;28;20425;-80
2024/01/11 08:47:57;;;;;;;34.53;23.20;;;;;;;-4.61;100.00;150199.34;4999969;28;20875;-81
2024/01/11 08:50:27;;;;;;;34.43;23.10;;;;;;;-4.55;100.00;150214.63;5000492;28;20941;-80
2024/01/11 08:52:55;;;;;;;34.53;22.20;;;;;;;-4.50;100.00;150228.69;5014100;28;20428;-81
2024/01/11 08:55:21;;;;;;;34.73;21.23;;;;;;;-4.45;100.00;150240.22;5023061;28;20504;-80
2024/01/11 08:57:48;;;;;;;34.80;20.90;;;;;;;-4.41;100.00;150250.44;5015445;28;20470;-80
2024/01/11 09:00:17;;;;;;;39.83;23.53;;;;;;;-4.38;100.00;150258.09;5023322;28;20535;-80
2024/01/11 09:02:44;;;;;;;36.33;23.40;;;;;;;-4.36;100.00;150263.19;5024982;28;20473;-81
2024/01/11 09:05:10;;;;;;;32.47;22.40;;;;;;;-4.33;100.00;150272.16;5020852;28;20422;-80
2024/01/11 09:07:57;;;;;;;38.57;22.40;;;;;;;-4.30;100.00;150278.56;5000153;28;20464;-80
2024/01/11 09:10:24;;;;;;;44.70;24.77;;;;;;;-4.27;100.00;150286.22;5020413;28;20445;-80
2024/01/11 09:12:51;;;;;;;33.20;21.17;;;;;;;-4.23;100.00;150296.44;4999631;28;20566;-80
2024/01/11 09:15:19;;;;;;;36.50;23.67;;;;;;;-4.17;100.00;150311.78;5024890;28;20444;-80
2024/01/11 09:18:08;;;;;;;30.97;20.77;;;;;;;-4.05;100.00;150342.44;5020699;28;20471;-80
2024/01/11 09:21:00;;;;;;;37.10;24.70;;;;;;;-3.92;100.00;150375.69;5013986;28;20471;-80
2024/01/11 09:23:27;;;;;;;35.27;21.17;;;;;;;-3.90;100.00;150379.53;5000120;28;20474;-79
2024/01/11 09:25:53;;;;;;;35.13;22.97;;;;;;;-3.91;100.00;150376.97;5014041;28;20462;-79
2024/01/11 09:28:20;;;;;;;34.50;23.27;;;;;;;-3.91;100.00;150378.25;5002803;28;20550;-86
2024/01/11 09:30:48;;;;;;;32.43;22.03;;;;;;;-3.83;100.00;150397.44;4985187;28;20456;-86
2024/01/11 09:33:14;;;;;;;34.17;22.60;;;;;;;-3.76;100.00;150415.38;4997806;28;20470;-85
2024/01/11 09:35:41;;;;;;;32.10;21.73;;;;;;;-3.75;100.00;150417.91;4984958;28;20466;-86
2024/01/11 09:38:08;;;;;;;30.43;21.40;;;;;;;-3.70;100.00;150431.97;4995633;28;20455;-85
2024/01/11 09:40:35;;;;;;;36.57;21.70;;;;;;;-3.65;100.00;150443.47;4996931;28;20458;-86
2024/01/11 09:43:05;;;;;;;39.93;25.13;;;;;;;-3.64;100.00;150444.75;4980110;28;20457;-86
2024/01/11 09:45:31;;;;;;;37.63;21.30;;;;;;;-3.60;100.00;150456.25;4997136;28;20449;-86
2024/01/11 09:48:01;;;;;;;35.87;22.90;;;;;;;-3.52;100.00;150476.72;4983210;28;20467;-86
2024/01/11 09:50:29;;;;;;;35.37;23.97;;;;;;;-3.54;100.00;150471.59;4998932;28;20607;-87
2024/01/11 09:52:55;;;;;;;35.97;21.47;;;;;;;-3.52;100.00;150475.47;4999907;28;20467;-86
2024/01/11 09:55:22;;;;;;;39.67;23.53;;;;;;;-3.45;100.00;150493.38;5019220;28;20462;-88
2024/01/11 09:57:49;;;;;;;37.33;23.33;;;;;;;-3.42;100.00;150501.03;4999630;28;20850;-88
2024/01/11 10:00:18;;;;;;;35.00;22.23;;;;;;;-3.41;100.00;150503.56;4994507;28;20486;-88
2024/01/11 10:02:45;;;;;;;40.07;21.27;;;;;;;-3.37;100.00;150515.13;5004403;28;20885;-89
2024/01/11 10:05:14;;;;;;;34.40;24.20;;;;;;;-3.35;100.00;150518.94;5009346;28;20452;-89
2024/01/11 10:07:41;;;;;;;32.47;20.80;;;;;;;-3.31;100.00;150529.19;5005463;28;20444;-89
2024/01/11 10:10:08;;;;;;;38.47;23.20;;;;;;;-3.34;100.00;150521.50;5002509;28;20475;-89
2024/01/11 10:12:35;;;;;;;36.23;22.23;;;;;;;-3.44;100.00;150497.19;5007314;28;20897;-89
2024/01/11 10:15:06;;;;;;;32.63;20.67;;;;;;;-3.42;100.00;150502.34;5020402;28;20458;-89
2024/01/11 10:17:33;;;;;;;35.83;21.40;;;;;;;-3.41;100.00;150504.84;5020356;28;20465;-88
2024/01/11 10:20:00;;;;;;;30.77;21.50;;;;;;;-3.39;100.00;150508.72;5020600;28;20547;-89
2024/01/11 10:22:28;;;;;;;38.93;22.53;;;;;;;-3.36;100.00;150516.41;5007953;28;20576;-88
2024/01/11 10:25:09;;;;;;;34.87;22.63;;;;;;;-3.35;100.00;150518.94;5023990;28;20476;-88
2024/01/11 10:27:35;;;;;;;36.60;22.27;;;;;;;-3.36;100.00;150516.41;5002719;28;20492;-87
2024/01/11 10:30:02;;;;;;;34.93;21.60;;;;;;;-3.40;100.00;150506.16;5002304;28;20471;-88
2024/01/11 10:32:29;;;;;;;37.63;23.73;;;;;;;-3.38;100.00;150511.25;5019075;28;20490;-87
2024/01/11 10:34:56;;;;;;;36.77;24.00;;;;;;;-3.38;100.00;150512.53;5016909;28;20534;-87
2024/01/11 10:37:23;;;;;;;43.07;24.50;;;;;;;-3.32;100.00;150526.63;5001587;28;20955;-88
2024/01/11 10:39:52;;;;;;;36.63;24.07;;;;;;;-3.23;100.00;150549.66;5017793;28;20828;-88
2024/01/11 10:42:21;;;;;;;30.97;22.07;;;;;;;-3.11;100.00;150580.34;5003896;28;20443;-88
2024/01/11 10:44:50;;;;;;;36.30;24.20;;;;;;;-2.99;100.00;150609.81;5005217;28;20421;-88
2024/01/11 10:47:18;;;;;;;36.90;23.00;;;;;;;-2.85;100.00;150645.59;5003413;28;20467;-87
2024/01/11 10:49:45;;;;;;;34.97;21.57;;;;;;;-2.77;100.00;150667.38;4983987;28;20474;-88
2024/01/11 10:52:13;;;;;;;34.80;21.00;;;;;;;-2.80;100.00;150659.69;5002330;28;20469;-88
2024/01/11 10:54:41;;;;;;;36.10;21.30;;;;;;;-2.78;100.00;150664.78;5016244;28;20518;-88
2024/01/11 10:57:09;;;;;;;37.37;22.70;;;;;;;-2.71;100.00;150681.47;5019008;28;20490;-87
2024/01/11 10:59:37;;;;;;;38.97;23.63;;;;;;;-2.53;100.00;150727.53;5007229;28;20447;-88
2024/01/11 11:02:10;;;;;;;40.60;23.50;;;;;;;-2.42;100.00;150754.41;5002352;28;20520;-88
2024/01/11 11:04:38;;;;;;;37.57;23.27;;;;;;;-2.41;100.00;150757.00;5002833;28;20983;-87
2024/01/11 11:07:07;;;;;;;34.77;20.80;;;;;;;-2.43;100.00;150751.84;4998308;28;20469;-88